Time;durP1;ratioP1;P1;durP2;ratioP2;P2;SDS_P1;SDS_P2;PMS_P1;PMS_P2;Temp;Humidity;BMP_temperature;BMP_pressure;BME280_temperature;BME280_humidity;BME280_pressure;Samples;Min_cycle;Max_cycle;Signal;HPM_P1;HPM_P2
2022/06/01 00:00:31;;;;;;;;;;;;;;;12.87;66.71;100924.75;5032449;28;20012;-78
2022/06/01 00:02:57;;;;;;;;;;;;;;;12.77;67.80;100922.44;5029361;28;19960;-78
2022/06/01 00:05:23;;;;;;;;;;;;;;;12.72;67.73;100932.16;5021969;28;19917;-78
2022/06/01 00:07:48;;;;;;;;;;;;;;;12.64;68.33;100938.41;5021890;28;20287;-78
2022/06/01 00:10:14;;;;;;;;;;;;;;;12.61;67.57;100937.63;5035039;28;19937;-78
2022/06/01 00:12:40;;;;;;;;;;;;;;;12.73;67.90;100941.66;5025888;28;19932;-78
2022/06/01 00:15:06;;;;;;;;;;;;;;;12.58;68.27;100930.75;5028815;28;20394;-78
2022/06/01 00:17:31;;;;;;;;;;;;;;;12.77;67.83;100930.28;5031367;28;19921;-79
2022/06/01 00:19:56;;;;;;;;;;;;;;;12.91;67.38;100933.34;5017878;28;19990;-79
2022/06/01 00:22:22;;;;;;;;;;;;;;;12.83;67.23;100928.34;5026436;28;19945;-79
2022/06/01 00:24:47;;;;;;;;;;;;;;;12.75;67.50;100934.69;5036424;28;20007;-79
2022/06/01 00:27:14;;;;;;;;;;;;;;;12.62;67.93;100924.59;5035685;28;19932;-78
2022/06/01 00:29:39;;;;;;;;;;;;;;;12.81;66.31;100932.72;5040079;28;19928;-73
2022/06/01 00:32:05;;;;;;;;;;;;;;;12.79;66.95;100934.53;5040890;28;20297;-73
2022/06/01 00:34:31;;;;;;;;;;;;;;;12.73;67.82;100931.25;5039967;28;19929;-73
2022/06/01 00:36:56;;;;;;;;;;;;;;;12.79;66.68;100933.69;5024584;28;19948;-73
2022/06/01 00:39:21;;;;;;;;;;;;;;;12.70;66.81;100929.56;5029024;28;19925;-73
2022/06/01 00:41:47;;;;;;;;;;;;;;;12.59;66.81;100927.28;5029474;28;20494;-73
2022/06/01 00:44:12;;;;;;;;;;;;;;;12.71;67.14;100917.41;5026404;28;20035;-73
2022/06/01 00:46:37;;;;;;;;;;;;;;;12.75;67.45;100927.69;5036519;28;19932;-73
2022/06/01 00:49:09;;;;;;;;;;;;;;;12.73;67.69;100932.09;5026536;28;19920;-73
2022/06/01 00:51:35;;;;;;;;;;;;;;;12.68;67.66;100922.69;5022640;28;19929;-73
2022/06/01 00:54:00;;;;;;;;;;;;;;;12.66;67.82;100925.38;5036560;28;20463;-73
2022/06/01 00:56:31;;;;;;;;;;;;;;;12.65;68.19;100927.09;5040805;28;20385;-78
2022/06/01 00:58:57;;;;;;;;;;;;;;;12.64;67.06;100920.19;5071849;28;19921;-78
2022/06/01 01:01:23;;;;;;;;;;;;;;;12.66;67.75;100920.97;5025861;28;19925;-73
2022/06/01 01:03:49;;;;;;;;;;;;;;;12.66;67.80;100914.94;5037729;28;20432;-73
2022/06/01 01:06:21;;;;;;;;;;;;;;;12.60;67.51;100913.31;5034053;28;19984;-73
2022/06/01 01:08:47;;;;;;;;;;;;;;;12.74;67.16;100905.16;5028659;28;19920;-73
2022/06/01 01:11:14;;;;;;;;;;;;;;;12.79;66.88;100911.06;5020175;28;19936;-73
2022/06/01 01:13:41;;;;;;;;;;;;;;;12.77;66.37;100904.19;5037335;28;19944;-73
2022/06/01 01:16:07;;;;;;;;;;;;;;;12.72;66.99;100911.31;5039085;28;20000;-73
2022/06/01 01:18:36;;;;;;;;;;;;;;;12.66;67.83;100907.13;5023726;28;20036;-73
2022/06/01 01:21:17;;;;;;;;;;;;;;;12.75;66.97;100911.22;5028661;28;19917;-73
2022/06/01 01:23:51;;;;;;;;;;;;;;;12.66;66.90;100918.38;5049634;28;19921;-78
2022/06/01 01:26:18;;;;;;;;;;;;;;;12.68;66.88;100917.50;5050772;28;19995;-78
2022/06/01 01:28:43;;;;;;;;;;;;;;;12.50;67.19;100924.88;5030906;28;19925;-73
2022/06/01 01:31:18;;;;;;;;;;;;;;;12.60;67.01;100917.72;5040753;28;19999;-73
2022/06/01 01:33:44;;;;;;;;;;;;;;;12.63;66.65;100912.41;5020705;28;19949;-73
2022/06/01 01:36:11;;;;;;;;;;;;;;;12.49;67.04;100909.25;5029636;28;19925;-74
2022/06/01 01:38:42;;;;;;;;;;;;;;;12.70;66.47;100913.94;5027826;28;19917;-73
2022/06/01 01:41:08;;;;;;;;;;;;;;;12.58;66.34;100914.28;5030580;28;19932;-73
2022/06/01 01:43:36;;;;;;;;;;;;;;;12.60;66.34;100912.50;5027493;28;19917;-79
2022/06/01 01:46:01;;;;;;;;;;;;;;;12.44;66.24;100904.19;5024513;28;19925;-76
2022/06/01 01:48:27;;;;;;;;;;;;;;;12.59;66.12;100902.97;5025046;28;19928;-73
2022/06/01 01:50:54;;;;;;;;;;;;;;;12.50;66.35;100905.78;5033451;28;19924;-73
2022/06/01 01:53:19;;;;;;;;;;;;;;;12.50;65.67;100911.84;5028738;28;20031;-73
2022/06/01 01:55:51;;;;;;;;;;;;;;;12.46;65.13;100904.13;5034899;28;20083;-78
2022/06/01 01:58:26;;;;;;;;;;;;;;;12.35;66.09;100904.44;5024126;28;19929;-73
2022/06/01 02:01:00;;;;;;;;;;;;;;;12.38;66.47;100912.16;5027974;28;19924;-73
2022/06/01 02:03:28;;;;;;;;;;;;;;;12.49;66.30;100906.66;5060502;28;19918;-73
2022/06/01 02:06:04;;;;;;;;;;;;;;;12.32;66.30;100912.31;5024156;28;20145;-78
2022/06/01 02:08:32;;;;;;;;;;;;;;;12.39;65.88;100911.28;5025967;28;19990;-79
2022/06/01 02:13:56;;;;;;;;;;;;;;;12.36;65.64;100906.16;5038378;28;19943;-79
2022/06/01 02:16:24;;;;;;;;;;;;;;;12.29;65.83;100914.16;5038586;28;19920;-79
2022/06/01 02:18:50;;;;;;;;;;;;;;;12.13;66.62;100910.25;5019166;28;19921;-79
2022/06/01 02:21:18;;;;;;;;;;;;;;;12.32;66.14;100909.72;5015768;28;20341;-78
2022/06/01 02:23:44;;;;;;;;;;;;;;;12.12;65.89;100909.38;5027005;28;20428;-78
2022/06/01 02:26:09;;;;;;;;;;;;;;;12.09;66.70;100914.66;5041110;28;19952;-79
2022/06/01 02:28:38;;;;;;;;;;;;;;;12.06;66.21;100915.59;5060514;28;19925;-79
2022/06/01 02:31:04;;;;;;;;;;;;;;;12.06;65.85;100917.34;5046157;28;19928;-79
2022/06/01 02:33:33;;;;;;;;;;;;;;;12.13;65.76;100914.53;5036845;28;19984;-79
2022/06/01 02:35:59;;;;;;;;;;;;;;;12.04;65.93;100916.50;5028687;28;20013;-79
2022/06/01 02:38:29;;;;;;;;;;;;;;;12.07;65.51;100911.22;5028488;28;19929;-79
2022/06/01 02:40:54;;;;;;;;;;;;;;;12.07;65.74;100919.03;5025499;28;19932;-79
2022/06/01 02:43:20;;;;;;;;;;;;;;;11.98;65.69;100916.66;5023375;28;19917;-79
2022/06/01 02:45:45;;;;;;;;;;;;;;;11.92;65.78;100922.00;5034122;28;19932;-79
2022/06/01 02:48:11;;;;;;;;;;;;;;;12.06;65.36;100925.16;5044140;28;19951;-78
2022/06/01 02:50:36;;;;;;;;;;;;;;;12.05;65.20;100924.28;5024419;28;20017;-77
2022/06/01 02:53:02;;;;;;;;;;;;;;;12.02;65.54;100926.09;5024789;28;19925;-77
2022/06/01 02:55:29;;;;;;;;;;;;;;;12.03;65.46;100923.47;5044891;28;19921;-77
2022/06/01 02:57:54;;;;;;;;;;;;;;;12.05;64.83;100923.44;5040342;28;19925;-77
2022/06/01 03:00:22;;;;;;;;;;;;;;;12.08;65.26;100934.63;5045484;28;19959;-76
2022/06/01 03:02:50;;;;;;;;;;;;;;;12.20;65.31;100933.47;5037874;28;19963;-77
2022/06/01 03:05:16;;;;;;;;;;;;;;;12.06;64.54;100933.81;5020188;28;20000;-77
2022/06/01 03:07:42;;;;;;;;;;;;;;;12.05;64.84;100933.84;5032198;28;20531;-77
2022/06/01 03:10:09;;;;;;;;;;;;;;;11.99;64.65;100932.25;5034049;28;19971;-77
2022/06/01 03:12:35;;;;;;;;;;;;;;;11.98;64.62;100933.13;5030103;28;19925;-76
2022/06/01 03:15:00;;;;;;;;;;;;;;;11.94;64.24;100930.66;5032088;28;19921;-77
2022/06/01 03:17:25;;;;;;;;;;;;;;;11.87;64.70;100934.28;5030671;28;20504;-77
2022/06/01 03:19:51;;;;;;;;;;;;;;;11.94;64.95;100946.28;5026509;28;19932;-77
2022/06/01 03:22:16;;;;;;;;;;;;;;;11.94;63.66;100951.47;5032923;28;19973;-76
2022/06/01 03:24:41;;;;;;;;;;;;;;;11.90;64.17;100948.09;5031570;28;19925;-76
2022/06/01 03:27:07;;;;;;;;;;;;;;;12.01;63.83;100943.47;5041599;28;19978;-76
2022/06/01 03:29:32;;;;;;;;;;;;;;;12.04;63.77;100950.34;5033794;28;19921;-76
2022/06/01 03:31:58;;;;;;;;;;;;;;;11.82;64.36;100947.41;5029070;28;20382;-77
2022/06/01 03:34:25;;;;;;;;;;;;;;;11.85;63.55;100946.50;5028759;28;19928;-76
2022/06/01 03:36:51;;;;;;;;;;;;;;;11.67;64.19;100952.09;5072436;28;19921;-76
2022/06/01 03:39:16;;;;;;;;;;;;;;;11.71;63.80;100952.00;5026407;28;20318;-76
2022/06/01 03:41:41;;;;;;;;;;;;;;;11.77;64.69;100951.84;5012613;28;19917;-76
2022/06/01 03:47:10;;;;;;;;;;;;;;;11.80;64.10;100941.38;4961871;28;20046;-76
2022/06/01 03:49:37;;;;;;;;;;;;;;;11.76;64.31;100942.34;4956882;28;20013;-76
2022/06/01 03:52:02;;;;;;;;;;;;;;;11.80;64.48;100940.53;4975817;28;20336;-76
2022/06/01 03:54:28;;;;;;;;;;;;;;;11.72;64.89;100940.69;5046887;28;19982;-76
2022/06/01 03:56:53;;;;;;;;;;;;;;;11.87;64.65;100949.91;5046302;28;20405;-76
2022/06/01 03:59:19;;;;;;;;;;;;;;;11.70;64.66;100939.03;5050216;28;20305;-76
2022/06/01 04:01:44;;;;;;;;;;;;;;;11.83;63.81;100948.28;5028745;28;19952;-76
2022/06/01 04:04:09;;;;;;;;;;;;;;;11.76;64.52;100951.91;5029845;28;19925;-76
2022/06/01 04:06:34;;;;;;;;;;;;;;;11.60;65.02;100953.97;5023790;28;20290;-76
2022/06/01 04:09:00;;;;;;;;;;;;;;;11.76;63.94;100955.38;5017127;28;19917;-76
2022/06/01 04:11:25;;;;;;;;;;;;;;;11.74;64.44;100964.94;5027137;28;19925;-76
2022/06/01 04:13:50;;;;;;;;;;;;;;;11.79;64.20;100963.09;5024323;28;20358;-76
2022/06/01 04:16:18;;;;;;;;;;;;;;;11.76;64.91;100964.91;5023557;28;19925;-76
2022/06/01 04:18:44;;;;;;;;;;;;;;;11.86;64.44;100958.63;5019682;28;19922;-77
2022/06/01 04:21:09;;;;;;;;;;;;;;;11.82;64.16;100970.84;5031922;28;19924;-77
2022/06/01 04:23:35;;;;;;;;;;;;;;;11.84;64.46;100973.41;5038313;28;19928;-77
2022/06/01 04:26:00;;;;;;;;;;;;;;;11.95;64.03;100963.59;5028794;28;19920;-77
2022/06/01 04:28:25;;;;;;;;;;;;;;;11.90;64.71;100973.25;5027355;28;19925;-76
2022/06/01 04:30:51;;;;;;;;;;;;;;;11.92;64.06;100969.72;5039342;28;19928;-76
2022/06/01 04:33:16;;;;;;;;;;;;;;;11.81;65.67;100976.94;5025823;28;19921;-76
2022/06/01 04:35:41;;;;;;;;;;;;;;;11.92;63.16;100969.72;5031563;28;19917;-76
2022/06/01 04:38:12;;;;;;;;;;;;;;;11.84;62.70;100968.19;5036709;28;19924;-76
2022/06/01 04:40:42;;;;;;;;;;;;;;;12.05;62.62;100967.69;5033774;28;19921;-77
2022/06/01 04:43:08;;;;;;;;;;;;;;;12.05;61.78;100973.75;5028835;28;20414;-77
2022/06/01 04:45:33;;;;;;;;;;;;;;;12.00;62.44;100974.78;5032965;28;19968;-77
2022/06/01 04:47:58;;;;;;;;;;;;;;;11.97;64.07;100982.66;5068778;28;19971;-77
2022/06/01 04:50:24;;;;;;;;;;;;;;;12.07;63.14;100977.19;5019889;28;19933;-77
2022/06/01 04:52:49;;;;;;;;;;;;;;;12.17;62.37;100983.03;5017210;28;19928;-77
2022/06/01 04:55:14;;;;;;;;;;;;;;;12.17;61.98;100980.41;5030274;28;19928;-77
2022/06/01 04:57:40;;;;;;;;;;;;;;;11.88;62.95;100983.72;5032558;28;19951;-77
2022/06/01 05:00:06;;;;;;;;;;;;;;;12.13;61.12;100981.38;5025169;28;19916;-76
2022/06/01 05:02:31;;;;;;;;;;;;;;;12.17;61.46;100980.41;5054090;28;19987;-76
2022/06/01 05:04:57;;;;;;;;;;;;;;;12.10;61.04;100987.53;5037707;28;20445;-76
2022/06/01 05:07:22;;;;;;;;;;;;;;;12.09;61.39;100982.38;5038990;28;19932;-76
2022/06/01 05:09:47;;;;;;;;;;;;;;;11.97;61.71;100980.03;5032780;28;19917;-76
2022/06/01 05:12:12;;;;;;;;;;;;;;;12.15;61.98;100982.22;5045083;28;19924;-76
2022/06/01 05:14:38;;;;;;;;;;;;;;;11.93;61.56;100989.66;5029028;28;19917;-76
2022/06/01 05:17:03;;;;;;;;;;;;;;;12.08;62.45;100973.69;5034903;28;20512;-76
2022/06/01 05:19:28;;;;;;;;;;;;;;;12.10;61.98;100986.66;5013034;28;19921;-76
2022/06/01 05:21:54;;;;;;;;;;;;;;;12.07;61.97;100985.00;5034483;28;19924;-76
2022/06/01 05:24:19;;;;;;;;;;;;;;;12.15;60.29;100984.81;5023420;28;19928;-76
2022/06/01 05:26:44;;;;;;;;;;;;;;;12.00;61.89;100990.38;5041404;28;19932;-76
2022/06/01 05:29:09;;;;;;;;;;;;;;;12.24;59.79;100989.81;5038175;28;19921;-76
2022/06/01 05:31:35;;;;;;;;;;;;;;;12.02;60.99;100984.25;5030457;28;19964;-76
2022/06/01 05:34:00;;;;;;;;;;;;;;;12.29;59.77;100995.75;5031375;28;19936;-76
2022/06/01 05:36:26;;;;;;;;;;;;;;;12.13;59.35;100989.19;5036560;28;20004;-76
2022/06/01 05:38:52;;;;;;;;;;;;;;;12.02;59.80;100994.66;5039148;28;19928;-76
2022/06/01 05:41:17;;;;;;;;;;;;;;;12.33;58.60;100986.97;5038439;28;19921;-78
2022/06/01 05:43:43;;;;;;;;;;;;;;;12.33;59.22;100988.72;5029836;28;19921;-78
2022/06/01 05:46:09;;;;;;;;;;;;;;;12.27;59.68;100994.94;5036472;28;19920;-78
2022/06/01 05:48:34;;;;;;;;;;;;;;;12.19;59.39;101001.19;5037416;28;19956;-78
2022/06/01 05:50:59;;;;;;;;;;;;;;;12.16;61.09;101003.88;5056786;28;19961;-78
2022/06/01 05:53:27;;;;;;;;;;;;;;;12.05;59.44;100997.19;5017087;28;19948;-78
2022/06/01 05:55:53;;;;;;;;;;;;;;;12.31;59.39;100993.09;5033518;28;19920;-78
2022/06/01 05:58:24;;;;;;;;;;;;;;;12.19;59.50;100994.25;5030832;28;19925;-78
2022/06/01 06:00:50;;;;;;;;;;;;;;;12.40;58.36;100993.72;5048999;28;19917;-78
2022/06/01 06:03:16;;;;;;;;;;;;;;;12.11;58.64;100993.59;5034551;28;19921;-78
2022/06/01 06:08:26;;;;;;;;;;;;;;;12.44;57.20;100998.00;5044000;28;19924;-78
2022/06/01 06:10:51;;;;;;;;;;;;;;;12.31;58.90;101000.91;5038293;28;19929;-77
2022/06/01 06:13:17;;;;;;;;;;;;;;;12.17;58.97;101006.47;5035240;28;19921;-76
2022/06/01 06:15:42;;;;;;;;;;;;;;;12.31;59.21;101006.13;5039351;28;19924;-76
2022/06/01 06:18:11;;;;;;;;;;;;;;;12.31;60.11;101012.19;5029671;28;20404;-76
2022/06/01 06:20:37;;;;;;;;;;;;;;;12.41;59.61;101013.69;5018163;28;19937;-77
2022/06/01 06:23:02;;;;;;;;;;;;;;;12.48;59.96;101009.19;5042482;28;19921;-77
2022/06/01 06:25:27;;;;;;;;;;;;;;;12.54;59.10;101003.88;5070417;28;19984;-77
2022/06/01 06:27:52;;;;;;;;;;;;;;;12.59;60.05;101018.47;5033966;28;20378;-77
2022/06/01 06:30:19;;;;;;;;;;;;;;;12.53;58.23;101012.56;5033424;28;19920;-77
2022/06/01 06:32:45;;;;;;;;;;;;;;;12.61;58.50;101016.69;5035242;28;19921;-77
2022/06/01 06:35:10;;;;;;;;;;;;;;;12.56;60.72;101017.69;5020963;28;20414;-77
2022/06/01 06:37:36;;;;;;;;;;;;;;;12.60;58.34;101008.91;5032835;28;19931;-77
2022/06/01 06:40:01;;;;;;;;;;;;;;;12.64;59.03;101014.00;5036354;28;19936;-77
2022/06/01 06:42:26;;;;;;;;;;;;;;;12.66;60.21;101013.97;5033232;28;19918;-77
2022/06/01 06:44:53;;;;;;;;;;;;;;;12.76;59.76;101009.34;5021254;28;20413;-77
2022/06/01 06:47:18;;;;;;;;;;;;;;;12.83;60.91;101021.34;5034971;28;19990;-77
2022/06/01 06:49:44;;;;;;;;;;;;;;;12.75;59.45;101010.28;5053826;28;19925;-76
2022/06/01 06:52:10;;;;;;;;;;;;;;;12.81;58.86;101015.31;5020957;28;19983;-77
2022/06/01 06:54:35;;;;;;;;;;;;;;;12.76;58.46;101009.34;5066360;28;19947;-77
2022/06/01 06:57:00;;;;;;;;;;;;;;;12.92;57.97;101019.38;5028285;28;21073;-76
2022/06/01 06:59:26;;;;;;;;;;;;;;;12.80;56.94;101009.25;5029235;28;19996;-77
2022/06/01 07:01:51;;;;;;;;;;;;;;;12.75;55.77;101016.31;5031812;28;20381;-77
2022/06/01 07:04:18;;;;;;;;;;;;;;;12.86;55.52;101019.53;5029918;28;19921;-76
2022/06/01 07:06:43;;;;;;;;;;;;;;;12.92;55.01;101008.94;5033520;28;19979;-77
2022/06/01 07:09:09;;;;;;;;;;;;;;;13.02;56.36;101018.19;5041360;28;20592;-76
2022/06/01 07:11:35;;;;;;;;;;;;;;;13.11;54.30;101014.47;5027474;28;19925;-76
2022/06/01 07:14:00;;;;;;;;;;;;;;;13.08;55.04;101018.03;5033398;28;19982;-76
2022/06/01 07:16:27;;;;;;;;;;;;;;;13.10;53.62;101018.00;5033289;28;20399;-76
2022/06/01 07:18:53;;;;;;;;;;;;;;;13.12;54.67;101021.41;5023484;28;19925;-77
2022/06/01 07:21:19;;;;;;;;;;;;;;;13.12;54.17;101021.41;5034502;28;19920;-77
2022/06/01 07:23:45;;;;;;;;;;;;;;;13.22;54.58;101022.91;5034029;28;20657;-77
2022/06/01 07:26:31;;;;;;;;;;;;;;;13.06;55.72;101021.59;5034285;28;19917;-77
2022/06/01 07:28:56;;;;;;;;;;;;;;;13.22;55.28;101028.09;5033482;28;19925;-77
2022/06/01 07:31:22;;;;;;;;;;;;;;;13.20;54.69;101028.13;5039375;28;20428;-77
2022/06/01 07:33:51;;;;;;;;;;;;;;;13.31;55.01;101029.59;5035873;28;20464;-77
2022/06/01 07:36:17;;;;;;;;;;;;;;;13.26;55.10;101029.72;5033529;28;19967;-77
2022/06/01 07:44:10;;;;;;;;;;;;;;;13.28;55.22;101027.94;5022893;28;19928;-77
2022/06/01 07:46:36;;;;;;;;;;;;;;;13.23;54.43;101027.19;5021291;28;19925;-76
2022/06/01 07:49:02;;;;;;;;;;;;;;;13.33;55.50;101027.78;5021650;28;19925;-76
2022/06/01 07:51:27;;;;;;;;;;;;;;;13.32;56.78;101028.69;5009163;28;19937;-76
2022/06/01 07:53:52;;;;;;;;;;;;;;;13.29;55.65;101021.81;5026711;28;20111;-77
2022/06/01 07:56:18;;;;;;;;;;;;;;;13.28;54.24;101024.47;5039382;28;20006;-77
2022/06/01 07:58:43;;;;;;;;;;;;;;;13.32;55.73;101024.31;5027808;28;19917;-77
2022/06/01 08:01:09;;;;;;;;;;;;;;;13.32;54.58;101016.50;5033670;28;20330;-78
2022/06/01 08:03:35;;;;;;;;;;;;;;;13.31;53.45;101025.25;5038917;28;20389;-73
2022/06/01 08:06:01;;;;;;;;;;;;;;;13.34;53.01;101025.16;5026296;28;19925;-73
2022/06/01 08:08:26;;;;;;;;;;;;;;;13.28;54.16;101025.34;5021918;28;19921;-73
2022/06/01 08:10:51;;;;;;;;;;;;;;;13.36;52.92;101032.94;5052236;28;19929;-73
2022/06/01 08:13:17;;;;;;;;;;;;;;;13.38;52.10;101031.97;5025350;28;20031;-73
2022/06/01 08:15:42;;;;;;;;;;;;;;;13.31;51.70;101029.59;5029313;28;19921;-73
2022/06/01 08:18:08;;;;;;;;;;;;;;;13.31;52.50;101038.28;5030866;28;19917;-73
2022/06/01 08:20:34;;;;;;;;;;;;;;;13.33;51.99;101041.69;5027875;28;20370;-73
2022/06/01 08:23:00;;;;;;;;;;;;;;;13.36;52.24;101045.97;5064992;28;20613;-73
2022/06/01 08:25:26;;;;;;;;;;;;;;;13.33;51.88;101041.69;5029242;28;19917;-73
2022/06/01 08:27:51;;;;;;;;;;;;;;;13.41;52.58;101047.56;5028180;28;20378;-73
2022/06/01 08:30:18;;;;;;;;;;;;;;;13.34;51.81;101053.88;5035867;28;19917;-73
2022/06/01 08:32:43;;;;;;;;;;;;;;;13.40;52.66;101052.84;5032831;28;20382;-73
2022/06/01 08:35:09;;;;;;;;;;;;;;;13.40;52.71;101055.44;5038171;28;19928;-73
2022/06/01 08:37:35;;;;;;;;;;;;;;;13.30;52.01;101052.22;5035186;28;19955;-73
2022/06/01 08:40:00;;;;;;;;;;;;;;;13.43;53.06;101060.56;5035244;28;19916;-73
2022/06/01 08:42:26;;;;;;;;;;;;;;;13.46;53.54;101050.88;5051620;28;19922;-73
2022/06/01 08:44:52;;;;;;;;;;;;;;;13.54;53.40;101054.16;5019775;28;19913;-73
2022/06/01 08:47:23;;;;;;;;;;;;;;;13.58;53.18;101050.53;5030778;28;19916;-73
2022/06/01 08:49:49;;;;;;;;;;;;;;;13.59;52.12;101052.25;5019350;28;19925;-73
2022/06/01 08:52:14;;;;;;;;;;;;;;;13.49;52.23;101047.34;5034001;28;19932;-73
2022/06/01 08:54:39;;;;;;;;;;;;;;;13.55;51.51;101049.78;5028428;28;19975;-73
2022/06/01 08:57:07;;;;;;;;;;;;;;;13.51;51.81;101049.00;5040655;28;19917;-73
2022/06/01 08:59:32;;;;;;;;;;;;;;;13.54;51.41;101046.31;5026012;28;20290;-73
2022/06/01 09:01:57;;;;;;;;;;;;;;;13.57;53.01;101053.19;5043648;28;19924;-73
2022/06/01 09:04:26;;;;;;;;;;;;;;;13.64;53.84;101057.34;5035160;28;19917;-73
2022/06/01 09:07:10;;;;;;;;;;;;;;;13.67;51.94;101059.91;5025739;28;20488;-73
2022/06/01 09:09:38;;;;;;;;;;;;;;;13.67;51.54;101052.91;5031784;28;19980;-73
2022/06/01 09:12:04;;;;;;;;;;;;;;;13.72;52.17;101055.41;5036412;28;20008;-73
2022/06/01 09:14:32;;;;;;;;;;;;;;;13.67;51.73;101052.09;5030582;28;19925;-73
2022/06/01 09:16:59;;;;;;;;;;;;;;;13.68;53.28;101051.16;5036410;28;19925;-73
2022/06/01 09:22:37;;;;;;;;;;;;;;;13.70;52.29;101050.22;5024931;28;19925;-73
2022/06/01 09:25:00;;;;;;;;;;;;;;;13.69;52.27;101056.34;5035770;28;19932;-73
2022/06/01 09:27:45;;;;;;;;;;;;;;;13.73;52.03;101044.91;5037850;28;20363;-73
2022/06/01 09:30:19;;;;;;;;;;;;;;;13.81;51.67;101054.28;5030014;28;19927;-73
2022/06/01 09:32:59;;;;;;;;;;;;;;;13.84;51.06;101054.19;5033714;28;20421;-73
2022/06/01 09:35:27;;;;;;;;;;;;;;;13.75;50.63;101057.94;5025519;28;19926;-73
2022/06/01 09:37:53;;;;;;;;;;;;;;;13.84;51.48;101052.44;5046700;28;19982;-73
2022/06/01 09:40:23;;;;;;;;;;;;;;;13.88;50.83;101048.81;5035103;28;20333;-73
2022/06/01 09:42:50;;;;;;;;;;;;;;;14.00;51.46;101042.34;5024717;28;19925;-73
2022/06/01 09:45:24;;;;;;;;;;;;;;;14.09;51.60;101044.69;5022929;28;19921;-73
2022/06/01 09:47:50;;;;;;;;;;;;;;;14.16;52.34;101043.59;5034611;28;19967;-73
2022/06/01 09:50:36;;;;;;;;;;;;;;;14.17;51.16;101045.31;5025286;28;19952;-73
2022/06/01 09:53:14;;;;;;;;;;;;;;;14.22;50.96;101043.41;5030077;28;19929;-73
2022/06/01 09:56:09;;;;;;;;;;;;;;;14.23;51.92;101039.91;5031290;28;20339;-73
2022/06/01 10:07:22;;;;;;;;;;;;;;;14.11;51.81;101049.00;5032735;28;19928;-73
2022/06/01 10:09:52;;;;;;;;;;;;;;;14.17;51.58;101053.16;5037342;28;19957;-79
2022/06/01 10:12:41;;;;;;;;;;;;;;;14.17;50.79;101053.16;5035661;28;19921;-78
2022/06/01 10:15:16;;;;;;;;;;;;;;;14.15;50.63;101052.34;5040692;28;19977;-79
2022/06/01 10:17:43;;;;;;;;;;;;;;;14.14;49.97;101048.91;5026964;28;19994;-79
2022/06/01 10:20:14;;;;;;;;;;;;;;;14.15;51.10;101055.81;5024118;28;19933;-78
2022/06/01 10:22:51;;;;;;;;;;;;;;;14.19;50.89;101054.81;5020933;28;19924;-79
2022/06/01 10:25:24;;;;;;;;;;;;;;;14.20;51.45;101053.94;5031282;28;20454;-79
2022/06/01 10:27:54;;;;;;;;;;;;;;;14.15;51.58;101055.81;5038058;28;19973;-79
2022/06/01 10:30:24;;;;;;;;;;;;;;;14.15;51.48;101054.94;5031090;28;19925;-79
2022/06/01 10:33:06;;;;;;;;;;;;;;;14.14;50.60;101048.91;5044908;28;19921;-79
2022/06/01 10:35:37;;;;;;;;;;;;;;;14.16;50.97;101056.66;5029335;28;19985;-79
2022/06/01 10:38:12;;;;;;;;;;;;;;;14.23;50.60;101045.13;5059634;28;19925;-79
2022/06/01 10:41:02;;;;;;;;;;;;;;;14.34;51.22;101045.63;5043923;28;20274;-73
2022/06/01 10:43:30;;;;;;;;;;;;;;;14.36;50.59;101043.81;5022216;28;19948;-73
2022/06/01 10:46:00;;;;;;;;;;;;;;;14.43;50.91;101045.34;5036321;28;19921;-73
2022/06/01 10:48:30;;;;;;;;;;;;;;;14.41;51.04;101046.31;5029925;28;19921;-73
2022/06/01 10:51:16;;;;;;;;;;;;;;;14.41;50.20;101047.16;5058837;28;19936;-73
2022/06/01 10:53:47;;;;;;;;;;;;;;;14.36;50.61;101050.81;5038475;28;20718;-73
2022/06/01 10:56:15;;;;;;;;;;;;;;;14.33;49.24;101049.16;5024305;28;19975;-73
2022/06/01 10:58:41;;;;;;;;;;;;;;;14.39;49.99;101048.94;5010833;28;19921;-73
2022/06/01 11:01:13;;;;;;;;;;;;;;;14.44;49.82;101048.81;5024147;28;19967;-73
2022/06/01 11:03:51;;;;;;;;;;;;;;;14.42;49.50;101043.63;5033449;28;20594;-73
2022/06/01 11:06:19;;;;;;;;;;;;;;;14.41;49.40;101041.94;5024805;28;19922;-73
2022/06/01 11:08:50;;;;;;;;;;;;;;;14.38;49.21;101042.03;5021584;28;19917;-73
2022/06/01 11:11:22;;;;;;;;;;;;;;;14.31;48.89;101036.16;5023990;28;19929;-73
2022/06/01 11:13:48;;;;;;;;;;;;;;;14.35;48.46;101041.28;5028493;28;19956;-73
2022/06/01 11:16:16;;;;;;;;;;;;;;;14.44;49.59;101039.22;5029505;28;20397;-73
2022/06/01 11:18:47;;;;;;;;;;;;;;;14.50;50.06;101043.41;5026333;28;21039;-73
2022/06/01 11:21:16;;;;;;;;;;;;;;;14.45;48.95;101038.28;5030192;28;19921;-74
2022/06/01 11:23:47;;;;;;;;;;;;;;;14.44;49.94;101038.38;5047171;28;20564;-73
2022/06/01 11:26:31;;;;;;;;;;;;;;;14.42;51.43;101037.53;5036647;28;19968;-73
2022/06/01 11:29:00;;;;;;;;;;;;;;;14.43;50.13;101032.28;5025753;28;20412;-73
2022/06/01 11:31:27;;;;;;;;;;;;;;;14.43;49.22;101032.28;5025443;28;19929;-73
2022/06/01 11:33:58;;;;;;;;;;;;;;;14.44;48.90;101033.13;5034937;28;19936;-73
2022/06/01 11:36:48;;;;;;;;;;;;;;;14.50;48.40;101020.69;5037883;28;19917;-73
2022/06/01 11:39:29;;;;;;;;;;;;;;;14.60;48.22;101029.09;5035026;28;19929;-73
2022/06/01 11:41:57;;;;;;;;;;;;;;;14.70;46.24;101028.75;5021946;28;19996;-76
2022/06/01 11:44:28;;;;;;;;;;;;;;;14.70;47.09;101028.75;5013617;28;19924;-79
2022/06/01 11:47:00;;;;;;;;;;;;;;;14.65;48.94;101027.19;5026905;28;19992;-79
2022/06/01 11:49:31;;;;;;;;;;;;;;;14.62;48.77;101029.91;5028505;28;19972;-79
2022/06/01 11:52:11;;;;;;;;;;;;;;;14.59;47.33;101025.63;5028416;28;19932;-79
2022/06/01 11:54:36;;;;;;;;;;;;;;;14.66;47.85;101031.50;5026083;28;19921;-76
2022/06/01 11:57:01;;;;;;;;;;;;;;;14.69;47.99;101029.66;5040403;28;20401;-76
2022/06/01 11:59:27;;;;;;;;;;;;;;;14.73;47.99;101028.66;5036231;28;19921;-76
2022/06/01 12:02:01;;;;;;;;;;;;;;;14.77;47.13;101027.66;5030831;28;19917;-73
2022/06/01 12:04:29;;;;;;;;;;;;;;;14.85;48.10;101030.03;5030104;28;19925;-73
2022/06/01 12:07:00;;;;;;;;;;;;;;;14.86;47.57;101027.34;5024126;28;19925;-73
2022/06/01 12:09:31;;;;;;;;;;;;;;;15.01;48.03;101025.94;5025101;28;19934;-73
2022/06/01 12:11:56;;;;;;;;;;;;;;;15.04;47.75;101027.59;5033391;28;19944;-73
2022/06/01 12:14:31;;;;;;;;;;;;;;;15.11;47.85;101035.19;5059930;28;19921;-79
2022/06/01 12:17:11;;;;;;;;;;;;;;;15.01;47.10;101025.94;5030565;28;19982;-73
2022/06/01 12:19:36;;;;;;;;;;;;;;;15.06;49.36;101031.03;5030743;28;20305;-73
2022/06/01 12:22:03;;;;;;;;;;;;;;;15.09;50.77;101036.16;5025781;28;19922;-73
2022/06/01 12:30:01;;;;;;;;;;;;;;;15.10;46.38;101024.78;5033648;28;19963;-76
2022/06/01 12:32:27;;;;;;;;;;;;;;;15.11;47.61;101021.25;5032925;28;19940;-76
2022/06/01 12:34:59;;;;;;;;;;;;;;;15.16;47.09;101020.19;5036530;28;19963;-76
2022/06/01 12:37:38;;;;;;;;;;;;;;;15.16;49.07;101029.78;5031507;28;19936;-77
2022/06/01 12:40:09;;;;;;;;;;;;;;;15.19;47.34;101011.34;5037206;28;19920;-78
2022/06/01 12:42:46;;;;;;;;;;;;;;;15.14;46.67;101021.16;5026492;28;19957;-78
2022/06/01 12:45:13;;;;;;;;;;;;;;;15.25;48.16;101026.84;5018153;28;19921;-78
2022/06/01 12:47:51;;;;;;;;;;;;;;;15.18;45.41;101022.75;5027901;28;19917;-78
2022/06/01 12:50:18;;;;;;;;;;;;;;;15.23;44.50;101016.44;5023870;28;19922;-73
2022/06/01 12:52:43;;;;;;;;;;;;;;;15.19;48.67;101020.06;5018495;28;19921;-73
2022/06/01 12:55:10;;;;;;;;;;;;;;;15.30;45.85;101014.47;5025336;28;20075;-73
2022/06/01 12:57:37;;;;;;;;;;;;;;;15.26;46.65;101026.81;5028845;28;19925;-73
2022/06/01 13:00:17;;;;;;;;;;;;;;;15.25;46.09;101017.22;5028340;28;19940;-73
2022/06/01 13:02:43;;;;;;;;;;;;;;;15.25;45.45;101019.00;5048828;28;19920;-78
2022/06/01 13:05:10;;;;;;;;;;;;;;;15.22;44.58;101009.50;5037461;28;19932;-78
2022/06/01 13:07:40;;;;;;;;;;;;;;;15.26;45.70;101025.94;5023668;28;19972;-78
2022/06/01 13:10:25;;;;;;;;;;;;;;;15.22;46.02;101019.97;5028994;28;19996;-78